KNFL/NFL METAR and TAF weather

Enter ICAO airport designator
Station Type Date Time Source
KNFL METAR 2019/09/21 04:56 UTC NOAA

KNFL 210456Z 35004KT 10SM SCT100 11/01 A3009 RMK AO2 SLP157 T01060006


Station Type Date Time Source
KNFL Decoded METAR 2019/09/21 04:56 UTC NOAA

FALLON NAVAL AIR STATION, NV, United States (KNFL) 39-26N 118-41W 1199M
Sep 21, 2019 - 12:56 AM EDT / 2019.09.21 0456 UTC
Wind: from the N (350 degrees) at 5 MPH (4 KT):0
Visibility: 10 mile(s):0
Sky conditions: partly cloudy
Temperature: 51.1 F (10.6 C)
Dew Point: 33.1 F (0.6 C)
Relative Humidity: 49%
Pressure (altimeter): 30.09 in. Hg (1018 hPa)
ob: KNFL 210456Z 35004KT 10SM SCT100 11/01 A3009 RMK AO2 SLP157 T01060006
cycle: 5

Station Type Date Time Source
KNFL TAF 2019/09/20 23:13 UTC NOAA

TAF KNFL 2023/2123 VRB06KT 9999 SCT060 SCT200 QNH3000INS
TEMPO 2023/2105 03009KT
FM210500 VRB06KT 9999 SCT200 QNH3005INS LAST NO
AMD AFT 0700 NEXT 2307 T04/2114Z T23/2123Z FS30155

Example: see airport list